Kingsville Naval Air Station
KNQI : now visible

Airfield :











YOU CAN JOIN US ON...

 
LOGIN :

Register | Disclaimer

   EN    FR    IT 

 









Legend :    VFR   Marginal VFR   IFR   Intensive IFR   Very Intensive IFR
Visi :
Ceiling :
>= 8 km
>= 3000ft
5 to 8 km
1000 to 3000 ft
1500m to 5 km
500 to 1000 ft
800 to 1500m
200 to 500 ft
< 800m
< 200 ft
Symbols :   Thunderstorms  Fog  Heavy snow  Heavy precipitations  Wind > 20 kt






- Airport Elevation : 50 ft


KNQI - Kingsville Naval Air Station

CURRENT METAR :
  • 232156Z 14016G24KT 10SM SCT044 34/27 A3003 RMK AO2 SLP166 T03390267 PNO $

EXPIRED METARs :
  • 232056Z 16013KT 10SM SCT049 36/24 A3005 RMK AO2 SLP173 T03560244 57017 PNO $
  • 231956Z 17016KT 10SM FEW050 36/23 A3007 RMK AO2 SLP179 T03560233 PNO $

TAF TAF KNQI
Valid from the 23 at 15:00 until the 24 at 15:00 UTC


2315/2415 17016G24KT 9999 SCT015 SCT035 QNH3008INS
TEMPO 2315/2318 17018G25KT
FM231800 16015G21KT 9999 SCT045 QNH3000INS
TEMPO 2319/2321 14018G25KT
FM232100 14019G27KT 9999 FEW050 510005 QNH2997INS
FM240200 16012G18KT 9999 FEW012 FEW020 510104 QNH3000INS
FM240600 17010KT 9999 FEW010 SCT020 510104 QNH2999INS
TEMPO 2406/2411 FEW008 BKN016
FM241100 17008KT 9999 FEW010 510104 QNH3000INS
FM241400 17016G24KT 9999 FEW015 SCT030 510004 QNH3001INS T37/2320Z T24/2412Z FN20044
KZHU FIR / North America



MET'MAP, your aeronautical weather chart ! - Copyright ORBIFLY December 2007 - Disclaimer

ORBIFLY MET'MAP TEAM :

Programming & Development : Alexandra Zaïnal
Concept & original design : Baudouin d'Aumeries
Assistance for programming : Marc-Olivier Méhu
Technical & hardware support : Manuel Goepfert

Contact : metmap@orbifly.com




SOURCES & CREDITS :

   NOAA       Earth
Advisory